createdAt,value
2023-05-04T00:02:13.865Z,3.60
2023-05-04T00:04:42.696Z,3.63
2023-05-04T00:07:11.506Z,4.07
2023-05-04T00:09:39.450Z,3.80
2023-05-04T00:12:07.858Z,3.80
2023-05-04T00:14:36.058Z,4.03
2023-05-04T00:17:06.327Z,3.87
2023-05-04T00:19:36.057Z,3.93
2023-05-04T00:22:04.244Z,4.10
2023-05-04T00:24:32.251Z,3.70
2023-05-04T00:27:00.131Z,3.90
2023-05-04T00:29:28.143Z,3.60
2023-05-04T00:31:56.288Z,4.30
2023-05-04T00:34:25.179Z,3.40
2023-05-04T00:36:54.516Z,4.00
2023-05-04T00:39:22.541Z,3.80
2023-05-04T00:41:50.681Z,4.27
2023-05-04T00:44:18.674Z,3.30
2023-05-04T00:46:46.972Z,3.83
2023-05-04T00:49:14.953Z,3.93
2023-05-04T00:51:43.005Z,3.73
2023-05-04T00:54:12.851Z,3.87
2023-05-04T00:56:43.161Z,4.00
2023-05-04T00:59:11.161Z,3.70
2023-05-04T01:01:39.118Z,4.27
2023-05-04T01:04:07.507Z,3.93
2023-05-04T01:06:45.676Z,3.67
2023-05-04T01:09:21.655Z,4.20
2023-05-04T01:11:56.364Z,4.07
2023-05-04T01:14:24.430Z,4.07
2023-05-04T01:16:56.166Z,3.60
2023-05-04T01:19:24.550Z,3.80
2023-05-04T01:21:53.805Z,3.33
2023-05-04T01:24:22.511Z,3.67
2023-05-04T01:26:57.342Z,3.80
2023-05-04T01:29:33.130Z,3.80
2023-05-04T01:32:03.358Z,3.90
2023-05-04T01:34:31.827Z,4.00
2023-05-04T01:37:03.393Z,3.93
2023-05-04T01:39:31.311Z,3.97
2023-05-04T01:41:59.298Z,3.90
2023-05-04T01:44:27.315Z,3.73
2023-05-04T01:46:55.313Z,3.80
2023-05-04T01:49:23.304Z,4.00
2023-05-04T01:51:51.260Z,4.20
2023-05-04T01:54:20.564Z,4.40
2023-05-04T01:56:48.473Z,4.10
2023-05-04T01:59:16.486Z,3.87
2023-05-04T02:01:44.444Z,3.37
2023-05-04T02:04:12.434Z,3.83
2023-05-04T02:06:40.484Z,3.67
2023-05-04T02:09:08.374Z,3.50
2023-05-04T02:11:37.867Z,3.80
2023-05-04T02:14:05.915Z,3.87
2023-05-04T02:16:34.009Z,3.57
2023-05-04T02:19:01.909Z,4.10
2023-05-04T02:21:30.315Z,3.60
2023-05-04T02:23:59.153Z,3.70
2023-05-04T02:26:27.146Z,3.67
2023-05-04T02:28:56.578Z,3.83
2023-05-04T02:31:24.941Z,3.73
2023-05-04T02:33:54.037Z,3.70
2023-05-04T02:36:22.071Z,4.07
2023-05-04T02:38:50.704Z,4.23
2023-05-04T02:41:18.739Z,4.03
2023-05-04T02:43:46.668Z,3.90
2023-05-04T02:46:16.207Z,4.63
2023-05-04T02:48:44.306Z,4.17
2023-05-04T02:51:12.378Z,4.10
2023-05-04T02:53:40.557Z,4.20
2023-05-04T02:56:08.763Z,4.07
2023-05-04T02:58:36.718Z,4.63
2023-05-04T03:01:04.738Z,4.23
2023-05-04T03:03:34.102Z,4.30
2023-05-04T03:06:01.976Z,4.40
2023-05-04T03:08:30.838Z,4.20
2023-05-04T03:10:58.705Z,4.30
2023-05-04T03:13:26.793Z,4.43
2023-05-04T03:15:54.675Z,4.17
2023-05-04T03:18:22.829Z,4.03
2023-05-04T03:20:53.060Z,4.47
2023-05-04T03:23:22.752Z,3.83
2023-05-04T03:25:51.013Z,4.53
2023-05-04T03:28:18.955Z,4.20
2023-05-04T03:30:47.519Z,4.47
2023-05-04T03:33:15.836Z,4.37
2023-05-04T03:35:45.124Z,3.83
2023-05-04T03:38:14.387Z,4.30
2023-05-04T03:40:44.698Z,4.80
2023-05-04T03:43:13.967Z,5.00
2023-05-04T03:45:42.814Z,4.17
2023-05-04T03:48:10.898Z,4.70
2023-05-04T03:50:38.971Z,4.80
2023-05-04T03:53:07.271Z,5.10
2023-05-04T03:55:37.005Z,5.30
2023-05-04T03:58:06.604Z,4.77
2023-05-04T04:00:35.033Z,4.90
2023-05-04T04:03:11.127Z,5.23
2023-05-04T04:05:39.608Z,5.60
2023-05-04T04:08:07.613Z,5.40
2023-05-04T04:10:37.891Z,5.47
2023-05-04T04:13:05.990Z,4.70
2023-05-04T04:15:34.028Z,5.00
2023-05-04T04:18:02.067Z,4.70
2023-05-04T04:20:33.877Z,4.43
2023-05-04T04:23:01.771Z,5.03
2023-05-04T04:25:29.657Z,4.93
2023-05-04T04:27:58.880Z,5.40
2023-05-04T04:30:27.073Z,4.70
2023-05-04T04:32:56.956Z,4.90
2023-05-04T04:35:24.959Z,5.30
2023-05-04T04:37:52.833Z,5.03
2023-05-04T04:40:22.493Z,4.97
2023-05-04T04:42:50.539Z,5.40
2023-05-04T04:45:20.317Z,5.03
2023-05-04T04:47:48.425Z,5.57
2023-05-04T04:50:16.366Z,5.23
2023-05-04T04:52:44.301Z,5.20
2023-05-04T04:55:12.263Z,4.80
2023-05-04T04:57:40.185Z,5.23
2023-05-04T05:00:09.911Z,5.70
2023-05-04T05:02:39.262Z,6.10
2023-05-04T05:05:08.304Z,6.00
2023-05-04T05:07:36.541Z,5.50
2023-05-04T05:10:05.201Z,5.90
2023-05-04T05:12:33.327Z,5.50
2023-05-04T05:15:03.158Z,5.87
2023-05-04T05:17:31.363Z,5.57
2023-05-04T05:20:00.710Z,5.43
2023-05-04T05:22:28.765Z,5.80
2023-05-04T05:24:56.795Z,4.97
2023-05-04T05:27:24.719Z,5.30
2023-05-04T05:29:52.896Z,4.47
2023-05-04T05:32:20.814Z,5.27
2023-05-04T05:34:48.808Z,5.50
2023-05-04T05:37:18.077Z,5.00
2023-05-04T05:39:46.145Z,4.60
2023-05-04T05:42:14.111Z,5.40
2023-05-04T05:44:42.166Z,5.30
2023-05-04T05:47:10.091Z,4.73
2023-05-04T05:49:38.017Z,5.07
2023-05-04T05:52:06.294Z,5.20
2023-05-04T05:54:36.003Z,4.73
2023-05-04T05:57:03.937Z,4.37
2023-05-04T05:59:31.930Z,4.77
2023-05-04T06:02:00.007Z,4.80
2023-05-04T06:04:28.093Z,4.47
2023-05-04T06:06:56.055Z,4.17
2023-05-04T06:09:24.011Z,3.83
2023-05-04T06:11:55.269Z,3.70
2023-05-04T06:14:23.605Z,3.70
2023-05-04T06:16:51.451Z,3.53
2023-05-04T06:19:19.678Z,3.80
2023-05-04T06:21:49.842Z,3.70
2023-05-04T06:24:17.774Z,3.23
2023-05-04T06:26:46.269Z,3.33
2023-05-04T06:29:15.707Z,3.90
2023-05-04T06:31:44.316Z,4.00
2023-05-04T06:34:13.031Z,2.90
2023-05-04T06:36:40.988Z,2.77
2023-05-04T06:39:08.971Z,2.63
2023-05-04T06:41:36.990Z,2.63
2023-05-04T06:44:05.469Z,3.17
2023-05-04T06:46:37.901Z,2.83
2023-05-04T06:49:06.440Z,2.97
2023-05-04T06:51:37.384Z,2.80
2023-05-04T06:54:05.531Z,3.20
2023-05-04T06:56:33.658Z,2.73
2023-05-04T06:59:01.641Z,3.67
2023-05-04T07:01:29.609Z,2.90
2023-05-04T07:03:59.199Z,3.03
2023-05-04T07:06:28.502Z,3.10
2023-05-04T07:08:56.435Z,2.80
2023-05-04T07:11:24.782Z,3.00
2023-05-04T07:13:53.141Z,3.13
2023-05-04T07:16:21.302Z,2.60
2023-05-04T07:18:49.260Z,3.13
2023-05-04T07:21:27.762Z,3.00
2023-05-04T07:23:56.792Z,2.50
2023-05-04T07:26:24.949Z,3.20
2023-05-04T07:28:53.052Z,3.00
2023-05-04T07:31:20.987Z,3.20
2023-05-04T07:33:49.147Z,2.93
2023-05-04T07:36:18.467Z,3.50
2023-05-04T07:38:46.399Z,3.20
2023-05-04T07:41:14.333Z,2.87
2023-05-04T07:43:42.366Z,2.93
2023-05-04T07:46:10.303Z,3.00
2023-05-04T07:48:38.316Z,2.90
2023-05-04T07:51:06.254Z,3.00
2023-05-04T07:53:35.535Z,2.80
2023-05-04T07:56:09.591Z,2.90
2023-05-04T07:58:37.630Z,3.17
2023-05-04T08:01:05.836Z,3.10
2023-05-04T08:03:33.952Z,3.47
2023-05-04T08:06:01.912Z,3.20
2023-05-04T08:08:29.859Z,2.70
2023-05-04T08:11:11.675Z,3.03
2023-05-04T08:13:46.365Z,2.77
2023-05-04T08:16:14.666Z,2.90
2023-05-04T08:18:42.646Z,3.00
2023-05-04T08:21:10.787Z,3.17
2023-05-04T08:23:38.730Z,2.90
2023-05-04T08:26:08.547Z,2.57
2023-05-04T08:28:37.781Z,3.00
2023-05-04T08:31:06.563Z,2.47
2023-05-04T08:33:34.526Z,2.87
2023-05-04T08:36:02.652Z,2.30
2023-05-04T08:38:30.859Z,2.90
2023-05-04T08:40:58.718Z,2.20
2023-05-04T08:43:29.349Z,2.67
2023-05-04T08:45:57.721Z,2.60
2023-05-04T08:48:25.619Z,2.50
2023-05-04T08:50:54.673Z,2.63
2023-05-04T08:53:24.270Z,2.60
2023-05-04T08:55:55.839Z,2.40
2023-05-04T08:58:25.967Z,2.30
2023-05-04T09:00:56.863Z,2.43
2023-05-04T09:03:25.539Z,2.13
2023-05-04T09:05:54.089Z,2.63
2023-05-04T09:08:22.479Z,2.57
2023-05-04T09:10:50.412Z,2.20
2023-05-04T09:13:18.441Z,2.63
2023-05-04T09:15:56.293Z,2.40
2023-05-04T09:18:24.392Z,2.53
2023-05-04T09:20:52.291Z,2.50
2023-05-04T09:23:22.254Z,2.60
2023-05-04T09:25:51.092Z,2.50
2023-05-04T09:28:20.074Z,2.10
2023-05-04T09:30:48.952Z,2.23
2023-05-04T09:33:26.049Z,2.20
2023-05-04T09:35:54.038Z,2.13
2023-05-04T09:38:28.731Z,2.50
2023-05-04T09:40:57.160Z,2.17
2023-05-04T09:43:25.396Z,2.77
2023-05-04T09:45:53.490Z,2.33
2023-05-04T09:48:25.671Z,2.60
2023-05-04T09:50:54.770Z,2.10
2023-05-04T09:53:24.936Z,2.50
2023-05-04T09:56:09.322Z,2.07
2023-05-04T09:58:37.720Z,2.30
2023-05-04T10:01:06.515Z,2.70
2023-05-04T10:03:36.481Z,2.80
2023-05-04T10:06:08.790Z,2.50
2023-05-04T10:08:37.950Z,2.47
2023-05-04T10:11:07.385Z,2.47
2023-05-04T10:13:35.378Z,2.17
2023-05-04T10:16:12.601Z,2.40
2023-05-04T10:18:58.530Z,2.77
2023-05-04T10:21:31.914Z,2.57
2023-05-04T10:24:17.508Z,2.80
2023-05-04T10:27:07.111Z,2.30
2023-05-04T10:29:36.068Z,2.10
2023-05-04T10:32:04.618Z,2.70
2023-05-04T10:34:35.476Z,2.70
2023-05-04T10:37:04.176Z,3.83
2023-05-04T10:39:35.968Z,2.50
2023-05-04T10:42:05.855Z,2.60
2023-05-04T10:44:37.710Z,2.40
2023-05-04T10:47:07.089Z,3.00
2023-05-04T10:49:37.140Z,2.60
2023-05-04T10:52:13.353Z,2.37
2023-05-04T10:54:42.460Z,3.03
2023-05-04T10:57:12.432Z,2.90
2023-05-04T10:59:41.463Z,2.80
2023-05-04T11:02:09.846Z,2.80
2023-05-04T11:04:39.476Z,2.90
2023-05-04T11:07:08.680Z,2.80
2023-05-04T11:09:38.264Z,2.77
2023-05-04T11:12:07.160Z,2.43
2023-05-04T11:14:37.886Z,2.50
2023-05-04T11:17:26.089Z,2.50
2023-05-04T11:19:57.127Z,2.80
2023-05-04T11:22:25.098Z,2.77
2023-05-04T11:24:54.321Z,2.40
2023-05-04T11:27:29.028Z,2.57
2023-05-04T11:29:58.207Z,2.37
2023-05-04T11:32:36.857Z,2.60
2023-05-04T11:35:10.591Z,2.60
2023-05-04T11:37:42.850Z,3.10
2023-05-04T11:40:14.010Z,2.73
2023-05-04T11:42:43.001Z,2.67
2023-05-04T11:45:15.634Z,3.13
2023-05-04T11:47:44.402Z,2.97
2023-05-04T11:50:16.408Z,2.97
2023-05-04T11:52:44.574Z,2.83
2023-05-04T11:55:14.882Z,3.10
2023-05-04T11:57:42.859Z,2.60
2023-05-04T12:00:12.246Z,2.60
2023-05-04T12:02:40.390Z,2.47
2023-05-04T12:05:15.753Z,2.60
2023-05-04T12:07:43.800Z,2.80
2023-05-04T12:10:12.206Z,2.63
2023-05-04T12:12:41.010Z,2.87
2023-05-04T12:15:10.679Z,3.20
2023-05-04T12:17:42.443Z,2.37
2023-05-04T12:20:11.014Z,2.50
2023-05-04T12:22:40.492Z,3.07
2023-05-04T12:25:11.126Z,2.87
2023-05-04T12:27:42.652Z,2.77
2023-05-04T12:30:11.950Z,2.50
2023-05-04T12:32:39.906Z,3.00
2023-05-04T12:35:08.609Z,2.70
2023-05-04T12:37:37.918Z,2.60
2023-05-04T12:40:21.079Z,2.97
2023-05-04T12:42:56.852Z,3.00
2023-05-04T12:45:24.912Z,2.90
2023-05-04T12:47:53.324Z,2.30
2023-05-04T12:50:21.322Z,2.90
2023-05-04T12:52:49.327Z,2.93
2023-05-04T12:55:18.732Z,2.87
2023-05-04T12:57:46.739Z,2.73
2023-05-04T13:00:16.025Z,2.60
2023-05-04T13:02:45.311Z,2.93
2023-05-04T13:05:15.481Z,2.67
2023-05-04T13:07:43.520Z,3.00
2023-05-04T13:10:11.997Z,2.80
2023-05-04T13:12:41.886Z,2.80
2023-05-04T13:15:11.868Z,2.73
2023-05-04T13:17:40.013Z,3.03
2023-05-04T13:20:09.032Z,2.83
2023-05-04T13:22:37.085Z,3.27
2023-05-04T13:25:06.250Z,2.90
2023-05-04T13:27:34.497Z,3.03
2023-05-04T13:30:04.894Z,2.73
2023-05-04T13:32:33.133Z,2.60
2023-05-04T13:35:01.235Z,2.90
2023-05-04T13:37:29.216Z,2.90
2023-05-04T13:39:57.850Z,2.83
2023-05-04T13:42:25.886Z,2.70
2023-05-04T13:44:53.769Z,2.50
2023-05-04T13:47:23.655Z,2.93
2023-05-04T13:49:52.032Z,2.90
2023-05-04T13:52:19.919Z,3.17
2023-05-04T13:54:47.965Z,2.83
2023-05-04T13:57:15.909Z,3.10
2023-05-04T13:59:54.662Z,3.43
2023-05-04T14:02:40.239Z,2.90
2023-05-04T14:05:09.029Z,3.00
2023-05-04T14:07:37.532Z,3.10
2023-05-04T14:10:06.240Z,3.30
2023-05-04T14:12:34.710Z,3.20
2023-05-04T14:15:04.265Z,3.23
2023-05-04T14:17:32.582Z,3.57
2023-05-04T14:20:02.038Z,3.70
2023-05-04T14:22:29.966Z,3.93
2023-05-04T14:24:58.804Z,4.47
2023-05-04T14:27:27.410Z,3.73
2023-05-04T14:29:55.302Z,3.80
2023-05-04T14:32:24.425Z,3.33
2023-05-04T14:34:52.374Z,3.93
2023-05-04T14:37:21.693Z,4.20
2023-05-04T14:39:49.632Z,4.33
2023-05-04T14:42:17.621Z,3.70
2023-05-04T14:44:47.849Z,3.80
2023-05-04T14:47:15.716Z,3.67
2023-05-04T14:49:43.677Z,4.03
2023-05-04T14:52:11.601Z,4.20
2023-05-04T14:54:41.047Z,4.43
2023-05-04T14:57:09.274Z,3.80
2023-05-04T14:59:37.705Z,4.60
2023-05-04T15:02:06.540Z,4.53
2023-05-04T15:04:34.502Z,3.93
2023-05-04T15:07:03.484Z,4.63
2023-05-04T15:09:31.472Z,3.70
2023-05-04T15:12:00.773Z,4.60
2023-05-04T15:14:28.688Z,4.37
2023-05-04T15:16:56.641Z,4.40
2023-05-04T15:19:24.659Z,4.73
2023-05-04T15:21:52.617Z,3.37
2023-05-04T15:24:20.703Z,4.40
2023-05-04T15:26:48.589Z,4.50
2023-05-04T15:29:17.938Z,4.50
2023-05-04T15:31:45.957Z,4.83
2023-05-04T15:34:15.167Z,4.77
2023-05-04T15:36:45.292Z,4.40
2023-05-04T15:39:13.340Z,4.50
2023-05-04T15:41:42.604Z,4.97
2023-05-04T15:44:10.600Z,4.47
2023-05-04T15:46:39.941Z,4.80
2023-05-04T15:49:08.307Z,4.63
2023-05-04T15:51:36.174Z,4.67
2023-05-04T15:54:04.532Z,4.27
2023-05-04T15:56:32.629Z,4.30
2023-05-04T15:59:00.754Z,4.70
2023-05-04T16:01:28.863Z,4.47
2023-05-04T16:03:59.622Z,4.90
2023-05-04T16:06:28.038Z,4.40
2023-05-04T16:08:56.019Z,4.23
2023-05-04T16:11:24.088Z,4.33
2023-05-04T16:13:52.255Z,4.27
2023-05-04T16:16:20.268Z,4.27
2023-05-04T16:18:48.167Z,4.40
2023-05-04T16:21:17.669Z,4.47
2023-05-04T16:23:45.724Z,5.33
2023-05-04T16:26:13.593Z,4.77
2023-05-04T16:28:41.746Z,4.47
2023-05-04T16:31:11.808Z,4.37
2023-05-04T16:33:41.328Z,4.80
2023-05-04T16:36:10.205Z,4.50
2023-05-04T16:38:39.698Z,4.60
2023-05-04T16:41:07.738Z,4.03
2023-05-04T16:43:35.635Z,4.30
2023-05-04T16:46:04.510Z,5.80
2023-05-04T16:48:32.478Z,4.47
2023-05-04T16:51:00.426Z,4.67
2023-05-04T16:53:28.308Z,4.67
2023-05-04T16:55:57.620Z,4.80
2023-05-04T16:58:26.814Z,4.83
2023-05-04T17:00:55.362Z,4.83
2023-05-04T17:03:23.473Z,4.63
2023-05-04T17:05:51.441Z,4.30
2023-05-04T17:08:19.465Z,3.23
2023-05-04T17:10:47.385Z,3.73
2023-05-04T17:13:16.893Z,5.33
2023-05-04T17:15:45.079Z,4.87
2023-05-04T17:18:12.993Z,4.27
2023-05-04T17:20:40.957Z,4.90
2023-05-04T17:23:08.894Z,4.57
2023-05-04T17:25:37.562Z,4.47
2023-05-04T17:28:05.948Z,4.67
2023-05-04T17:30:35.655Z,4.47
2023-05-04T17:33:03.711Z,4.30
2023-05-04T17:35:31.730Z,4.50
2023-05-04T17:38:00.569Z,4.43
2023-05-04T17:40:29.495Z,4.67
2023-05-04T17:42:57.571Z,4.67
2023-05-04T17:45:25.507Z,3.83
2023-05-04T17:47:55.120Z,4.00
2023-05-04T17:50:23.320Z,4.20
2023-05-04T17:52:55.547Z,4.00
2023-05-04T17:55:24.591Z,3.80
2023-05-04T17:57:54.114Z,3.40
2023-05-04T18:00:22.492Z,3.40
2023-05-04T18:02:50.620Z,3.80
2023-05-04T18:05:20.494Z,3.73
2023-05-04T18:07:48.521Z,4.00
2023-05-04T18:10:16.640Z,3.77
2023-05-04T18:12:44.960Z,3.67
2023-05-04T18:15:13.094Z,3.47
2023-05-04T18:17:41.083Z,3.70
2023-05-04T18:20:10.348Z,3.13
2023-05-04T18:22:40.151Z,3.13
2023-05-04T18:25:09.045Z,3.20
2023-05-04T18:27:37.205Z,3.20
2023-05-04T18:30:06.626Z,3.20
2023-05-04T18:32:35.144Z,3.03
2023-05-04T18:35:03.330Z,3.53
2023-05-04T18:37:31.487Z,3.20
2023-05-04T18:40:00.948Z,3.33
2023-05-04T18:42:29.398Z,3.37
2023-05-04T18:44:57.548Z,3.73
2023-05-04T18:47:28.308Z,3.33
2023-05-04T18:49:56.438Z,3.40
2023-05-04T18:52:24.973Z,2.90
2023-05-04T18:54:52.868Z,3.70
2023-05-04T18:57:22.285Z,3.30
2023-05-04T18:59:50.242Z,3.80
2023-05-04T19:02:18.490Z,3.70
2023-05-04T19:04:47.143Z,4.07
2023-05-04T19:07:17.068Z,3.90
2023-05-04T19:09:46.362Z,4.00
2023-05-04T19:12:15.386Z,3.60
2023-05-04T19:14:44.749Z,3.47
2023-05-04T19:17:14.557Z,3.27
2023-05-04T19:19:42.652Z,4.10
2023-05-04T19:22:11.459Z,3.80
2023-05-04T19:24:39.825Z,3.77
2023-05-04T19:27:07.924Z,3.63
2023-05-04T19:29:35.921Z,3.80
2023-05-04T19:32:19.730Z,4.00
2023-05-04T19:34:51.417Z,3.83
2023-05-04T19:37:19.401Z,4.00
2023-05-04T19:39:47.418Z,3.80
2023-05-04T19:42:16.091Z,3.80
2023-05-04T19:44:44.037Z,3.80
2023-05-04T19:47:13.667Z,3.87
2023-05-04T19:49:41.793Z,3.80
2023-05-04T19:52:09.688Z,3.67
2023-05-04T19:54:38.264Z,3.97
2023-05-04T19:57:06.314Z,3.80
2023-05-04T19:59:34.548Z,3.27
2023-05-04T20:02:02.852Z,4.23
2023-05-04T20:04:32.417Z,3.67
2023-05-04T20:07:00.328Z,3.60
2023-05-04T20:09:28.962Z,3.90
2023-05-04T20:11:56.936Z,3.60
2023-05-04T20:14:24.862Z,4.03
2023-05-04T20:16:52.877Z,3.90
2023-05-04T20:19:20.921Z,4.30
2023-05-04T20:21:50.300Z,3.97
2023-05-04T20:24:18.757Z,4.47
2023-05-04T20:26:46.776Z,4.30
2023-05-04T20:29:14.746Z,3.97
2023-05-04T20:31:43.677Z,3.93
2023-05-04T20:34:12.010Z,4.33
2023-05-04T20:36:39.922Z,4.30
2023-05-04T20:39:10.100Z,4.37
2023-05-04T20:41:38.379Z,4.27
2023-05-04T20:44:06.597Z,4.80
2023-05-04T20:46:34.663Z,4.20
2023-05-04T20:49:03.441Z,4.43
2023-05-04T20:51:31.791Z,4.20
2023-05-04T20:53:59.664Z,4.00
2023-05-04T20:56:29.036Z,3.70
2023-05-04T20:58:57.064Z,3.97
2023-05-04T21:01:25.020Z,3.90
2023-05-04T21:03:53.026Z,3.37
2023-05-04T21:06:21.069Z,3.90
2023-05-04T21:08:48.982Z,3.80
2023-05-04T21:11:16.986Z,3.40
2023-05-04T21:13:46.283Z,3.30
2023-05-04T21:16:14.264Z,3.20
2023-05-04T21:18:44.599Z,3.20
2023-05-04T21:21:12.566Z,2.87
2023-05-04T21:23:40.662Z,3.03
2023-05-04T21:26:09.445Z,2.77
2023-05-04T21:28:37.299Z,3.20
2023-05-04T21:31:09.480Z,2.90
2023-05-04T21:33:37.663Z,2.70
2023-05-04T21:36:12.618Z,2.60
2023-05-04T21:38:42.030Z,2.60
2023-05-04T21:41:14.840Z,2.77
2023-05-04T21:43:43.698Z,2.50
2023-05-04T21:46:13.058Z,3.03
2023-05-04T21:48:41.441Z,2.30
2023-05-04T21:51:09.320Z,2.70
2023-05-04T21:53:38.839Z,2.17
2023-05-04T21:56:10.717Z,2.30
2023-05-04T21:58:41.055Z,2.80
2023-05-04T22:01:09.724Z,1.87
2023-05-04T22:03:39.153Z,2.40
2023-05-04T22:06:07.524Z,2.20
2023-05-04T22:08:35.542Z,2.00
2023-05-04T22:11:03.658Z,1.90
2023-05-04T22:13:31.604Z,2.30
2023-05-04T22:15:59.469Z,2.23
2023-05-04T22:18:27.451Z,2.20
2023-05-04T22:20:56.655Z,2.03
2023-05-04T22:23:24.702Z,2.00
2023-05-04T22:25:52.635Z,2.23
2023-05-04T22:28:20.784Z,2.30
2023-05-04T22:30:48.693Z,1.90
2023-05-04T22:33:16.683Z,2.40
2023-05-04T22:35:44.726Z,2.17
2023-05-04T22:38:14.644Z,2.20
2023-05-04T22:40:43.776Z,1.70
2023-05-04T22:43:11.801Z,2.17
2023-05-04T22:45:40.161Z,2.33
2023-05-04T22:48:08.576Z,2.07
2023-05-04T22:50:36.657Z,1.70
2023-05-04T22:53:04.656Z,2.10
2023-05-04T22:55:35.008Z,2.10
2023-05-04T22:58:02.909Z,1.80
2023-05-04T23:00:31.688Z,2.27
2023-05-04T23:02:59.946Z,2.07
2023-05-04T23:05:28.017Z,2.30
2023-05-04T23:07:55.992Z,2.20
2023-05-04T23:10:24.222Z,1.97
2023-05-04T23:12:53.518Z,2.00
2023-05-04T23:15:24.013Z,2.23
2023-05-04T23:17:53.731Z,2.10
2023-05-04T23:20:22.120Z,2.20
2023-05-04T23:22:50.121Z,2.10
2023-05-04T23:25:18.028Z,2.43
2023-05-04T23:27:46.618Z,2.20
2023-05-04T23:30:16.086Z,1.93
2023-05-04T23:32:44.079Z,2.07
2023-05-04T23:35:12.074Z,2.30
2023-05-04T23:37:40.118Z,2.00
2023-05-04T23:40:10.139Z,2.17
2023-05-04T23:42:38.327Z,1.97
2023-05-04T23:45:07.442Z,2.00
2023-05-04T23:47:36.777Z,2.10
2023-05-04T23:50:05.191Z,2.17
2023-05-04T23:52:33.883Z,2.07
2023-05-04T23:55:01.854Z,2.33
2023-05-04T23:57:29.764Z,1.90
2023-05-04T23:59:57.744Z,2.23
